Time;durP1;ratioP1;P1;durP2;ratioP2;P2;SDS_P1;SDS_P2;PMS_P1;PMS_P2;Temp;Humidity;BMP_temperature;BMP_pressure;BME280_temperature;BME280_humidity;BME280_pressure;Samples;Min_cycle;Max_cycle;Signal;HPM_P1;HPM_P2
2022/11/29 00:02:25;;;;;;;46.33;27.70;;;;;;;6.50;100.00;100069.81;5084602;28;20503;-72
2022/11/29 00:04:51;;;;;;;41.13;26.90;;;;;;;6.48;100.00;100069.91;5083581;28;20540;-69
2022/11/29 00:07:18;;;;;;;42.57;27.67;;;;;;;6.50;100.00;100072.47;5083054;28;20544;-70
2022/11/29 00:09:45;;;;;;;49.03;28.30;;;;;;;6.47;100.00;100068.22;5083557;28;20472;-72
2022/11/29 00:12:14;;;;;;;46.53;28.47;;;;;;;6.53;100.00;100074.88;5081826;28;20518;-72
2022/11/29 00:14:42;;;;;;;51.03;28.50;;;;;;;6.55;100.00;100070.28;5089129;28;20497;-71
2022/11/29 00:17:08;;;;;;;50.60;30.07;;;;;;;6.47;100.00;100070.03;5102761;28;20475;-72
2022/11/29 00:19:36;;;;;;;46.30;27.70;;;;;;;6.46;100.00;100071.00;5086215;28;20984;-71
2022/11/29 00:22:03;;;;;;;41.43;25.53;;;;;;;6.53;100.00;100067.75;5089505;28;20482;-69
2022/11/29 00:24:31;;;;;;;44.80;28.73;;;;;;;6.49;100.00;100076.94;5083605;28;20497;-71
2022/11/29 00:26:58;;;;;;;49.80;28.70;;;;;;;6.48;100.00;100069.91;5095312;28;20530;-71
2022/11/29 00:29:25;;;;;;;52.43;29.20;;;;;;;6.53;100.00;100075.72;5092550;28;20445;-71
2022/11/29 00:31:53;;;;;;;45.87;28.70;;;;;;;6.51;100.00;100082.97;5080057;28;20571;-71
2022/11/29 00:34:19;;;;;;;45.83;27.57;;;;;;;6.62;100.00;100084.78;5083443;28;20544;-70
2022/11/29 00:36:49;;;;;;;54.17;27.07;;;;;;;6.55;100.00;100083.56;5072657;28;20512;-69
2022/11/29 00:39:15;;;;;;;58.23;30.23;;;;;;;6.62;100.00;100082.13;5063107;28;20469;-71
2022/11/29 00:41:42;;;;;;;48.57;28.57;;;;;;;6.53;100.00;100077.53;5061615;28;20505;-70
2022/11/29 00:44:09;;;;;;;49.73;29.07;;;;;;;6.46;100.00;100077.16;5073630;28;20521;-69
2022/11/29 00:46:35;;;;;;;43.67;26.20;;;;;;;6.53;100.00;100077.53;5082662;28;20532;-70
2022/11/29 00:49:03;;;;;;;44.87;27.70;;;;;;;6.42;100.00;100075.69;5102181;28;20522;-71
2022/11/29 00:51:30;;;;;;;45.20;27.30;;;;;;;6.41;100.00;100079.31;5086699;28;20539;-71
2022/11/29 00:53:57;;;;;;;48.30;26.37;;;;;;;6.50;100.00;100088.41;5082594;28;20543;-68
2022/11/29 00:56:23;;;;;;;50.30;28.00;;;;;;;6.56;100.00;100077.28;5082101;28;20499;-71
2022/11/29 00:58:50;;;;;;;45.47;29.37;;;;;;;6.48;100.00;100083.19;5064623;28;20557;-68
2022/11/29 01:01:16;;;;;;;39.37;26.90;;;;;;;6.57;100.00;100077.16;5080306;28;20475;-69
2022/11/29 01:03:43;;;;;;;49.93;28.87;;;;;;;6.49;100.00;100074.28;5082402;28;20464;-67
2022/11/29 01:06:12;;;;;;;47.67;27.70;;;;;;;6.48;100.00;100083.19;5081246;28;20603;-71
2022/11/29 01:08:39;;;;;;;46.87;27.90;;;;;;;6.53;100.00;100086.34;5088864;28;20527;-67
2022/11/29 01:11:08;;;;;;;40.23;25.70;;;;;;;6.37;100.00;100088.47;5080700;28;20495;-71
2022/11/29 01:13:35;;;;;;;48.90;28.67;;;;;;;6.45;100.00;100079.94;5082581;28;20500;-72
2022/11/29 01:16:02;;;;;;;45.10;27.50;;;;;;;6.52;100.00;100084.63;5099628;28;20582;-69
2022/11/29 01:18:29;;;;;;;43.27;27.10;;;;;;;6.58;100.00;100078.03;5101342;28;20451;-71
2022/11/29 01:21:00;;;;;;;45.70;27.83;;;;;;;6.54;100.00;100080.06;5083738;28;20563;-71
2022/11/29 01:23:29;;;;;;;40.90;27.50;;;;;;;6.56;100.00;100074.63;5082128;28;20984;-70
2022/11/29 01:25:57;;;;;;;43.43;25.20;;;;;;;6.60;100.00;100079.59;5081630;28;20543;-71
2022/11/29 01:28:23;;;;;;;46.73;26.27;;;;;;;6.68;100.00;100078.13;5102290;28;20458;-71
2022/11/29 01:30:50;;;;;;;40.37;25.73;;;;;;;6.60;100.00;100084.06;5079116;28;20501;-71
2022/11/29 01:33:17;;;;;;;47.30;27.30;;;;;;;6.60;100.00;100082.25;5067809;28;20502;-71
2022/11/29 01:35:47;;;;;;;40.97;26.67;;;;;;;6.65;100.00;100078.38;5100605;28;20494;-72
2022/11/29 01:38:14;;;;;;;43.33;27.03;;;;;;;6.66;100.00;100088.88;5098756;28;20478;-69
2022/11/29 01:40:42;;;;;;;47.10;28.80;;;;;;;6.71;100.00;100092.03;5088366;28;20495;-68
2022/11/29 01:43:13;;;;;;;44.23;26.30;;;;;;;6.65;100.00;100095.19;5101757;28;20463;-69
2022/11/29 01:45:40;;;;;;;54.77;28.40;;;;;;;6.64;100.00;100100.59;5100576;28;20530;-71
2022/11/29 01:48:07;;;;;;;57.60;28.73;;;;;;;6.62;100.00;100098.06;5100609;28;20526;-67
2022/11/29 01:50:33;;;;;;;57.63;29.53;;;;;;;6.62;100.00;100098.06;5100416;28;20504;-69
2022/11/29 01:53:00;;;;;;;51.10;28.87;;;;;;;6.64;100.00;100097.94;5101625;28;20996;-67
2022/11/29 01:55:27;;;;;;;65.17;32.03;;;;;;;6.61;100.00;100101.69;5101140;28;20467;-71
2022/11/29 01:57:55;;;;;;;69.47;31.37;;;;;;;6.58;100.00;100101.94;5087403;28;20487;-71
2022/11/29 02:00:22;;;;;;;66.87;34.50;;;;;;;6.58;100.00;100104.59;5088637;28;20447;-71
2022/11/29 02:02:52;;;;;;;60.03;32.00;;;;;;;6.63;100.00;100109.53;5101948;28;20460;-68
2022/11/29 02:05:19;;;;;;;59.30;31.53;;;;;;;6.65;100.00;100097.84;5100697;28;20526;-68
2022/11/29 02:07:50;;;;;;;78.47;33.97;;;;;;;6.65;100.00;100102.28;5084683;28;20472;-70
2022/11/29 02:10:17;;;;;;;70.07;31.87;;;;;;;6.67;100.00;100100.38;5080699;28;20487;-71
2022/11/29 02:12:51;;;;;;;75.93;34.27;;;;;;;6.67;100.00;100098.56;5080982;28;20454;-70
2022/11/29 02:15:41;;;;;;;79.77;34.03;;;;;;;6.68;100.00;100102.88;5081164;28;20524;-68
2022/11/29 02:18:13;;;;;;;77.83;32.70;;;;;;;6.63;100.00;100110.41;5085345;28;21033;-68
2022/11/29 02:21:06;;;;;;;85.63;35.50;;;;;;;6.65;100.00;100111.13;5101108;28;20538;-70
2022/11/29 02:24:06;;;;;;;72.87;35.27;;;;;;;6.67;100.00;100106.53;5061720;28;20497;-68
2022/11/29 02:27:06;;;;;;;77.20;32.47;;;;;;;6.70;100.00;100110.75;5079054;28;20484;-71
2022/11/29 02:30:06;;;;;;;84.47;36.03;;;;;;;6.68;100.00;100113.50;5099902;28;20455;-70
2022/11/29 02:33:09;;;;;;;74.30;34.50;;;;;;;6.67;100.00;100118.97;5088593;28;20543;-71
2022/11/29 02:36:01;;;;;;;101.37;38.17;;;;;;;6.67;100.00;100116.31;5089969;28;20502;-67
2022/11/29 02:38:40;;;;;;;85.13;34.53;;;;;;;6.57;100.00;100114.34;5081844;28;20540;-70
2022/11/29 02:41:26;;;;;;;78.93;33.17;;;;;;;6.60;100.00;100118.59;5099976;28;20566;-70
2022/11/29 02:44:06;;;;;;;92.47;36.40;;;;;;;6.64;100.00;100117.38;5082562;28;20476;-67
2022/11/29 02:46:47;;;;;;;93.93;35.70;;;;;;;6.60;100.00;100115.94;5079812;28;20511;-69
2022/11/29 02:49:22;;;;;;;81.63;33.67;;;;;;;6.59;100.00;100125.69;5060154;28;20446;-72
2022/11/29 02:51:58;;;;;;;109.10;34.03;;;;;;;6.55;100.00;100126.06;5078369;28;20474;-70
2022/11/29 02:54:28;;;;;;;66.37;32.30;;;;;;;6.65;100.00;100128.84;5082915;28;20560;-71
2022/11/29 02:56:57;;;;;;;92.27;32.50;;;;;;;6.67;100.00;100127.78;5086111;28;20495;-72
2022/11/29 02:59:38;;;;;;;72.27;33.70;;;;;;;6.69;100.00;100133.81;5065107;28;20981;-72
2022/11/29 03:02:14;;;;;;;112.70;36.37;;;;;;;6.68;100.00;100131.28;5100294;28;20527;-68
2022/11/29 03:04:45;;;;;;;98.90;33.77;;;;;;;6.57;100.00;100135.59;5104480;28;20960;-71
2022/11/29 03:07:19;;;;;;;134.43;38.87;;;;;;;6.63;100.00;100144.06;5096517;28;20980;-72
2022/11/29 03:09:53;;;;;;;131.37;33.30;;;;;;;6.60;100.00;100142.50;5084680;28;20463;-72
2022/11/29 03:12:26;;;;;;;140.17;35.67;;;;;;;6.52;100.00;100143.06;5100232;28;20499;-69
2022/11/29 03:14:57;;;;;;;91.43;30.33;;;;;;;6.63;100.00;100146.72;5104868;28;20478;-69
2022/11/29 03:17:32;;;;;;;105.40;33.27;;;;;;;6.59;100.00;100146.09;5104181;28;20498;-71
2022/11/29 03:20:07;;;;;;;100.43;34.17;;;;;;;6.68;100.00;100144.56;5083705;28;20515;-67
2022/11/29 03:22:43;;;;;;;123.57;33.80;;;;;;;6.70;100.00;100143.50;5083656;28;20464;-71
2022/11/29 03:25:13;;;;;;;113.70;33.17;;;;;;;6.65;100.00;100150.09;5086192;28;20510;-71
2022/11/29 03:27:42;;;;;;;130.00;35.47;;;;;;;6.58;100.00;100157.72;5104110;28;20487;-72
2022/11/29 03:30:10;;;;;;;151.73;37.23;;;;;;;6.53;100.00;100154.56;5085525;28;20559;-72
2022/11/29 03:32:42;;;;;;;132.03;36.97;;;;;;;6.49;100.00;100158.41;5084000;28;20488;-71
2022/11/29 03:35:13;;;;;;;135.13;33.37;;;;;;;6.68;100.00;100160.50;5083522;28;20543;-72
2022/11/29 03:37:47;;;;;;;133.77;35.43;;;;;;;6.61;100.00;100170.75;5084304;28;20460;-68
2022/11/29 03:40:17;;;;;;;70.87;31.70;;;;;;;6.64;100.00;100170.50;5068984;28;20495;-72
2022/11/29 03:42:50;;;;;;;141.93;35.30;;;;;;;6.63;100.00;100174.16;5092831;28;20483;-72
2022/11/29 03:45:20;;;;;;;84.17;34.60;;;;;;;6.64;100.00;100165.19;5087805;28;20862;-72
2022/11/29 03:47:52;;;;;;;117.17;36.17;;;;;;;6.64;100.00;100167.03;5083646;28;20814;-69
2022/11/29 03:50:22;;;;;;;107.97;34.70;;;;;;;6.65;100.00;100164.25;5097426;28;20455;-71
2022/11/29 03:52:52;;;;;;;94.10;33.07;;;;;;;6.60;100.00;100175.22;5103099;28;21015;-71
2022/11/29 03:55:38;;;;;;;114.80;32.20;;;;;;;6.58;100.00;100174.50;5103722;28;20495;-71
2022/11/29 03:58:21;;;;;;;91.83;33.00;;;;;;;6.64;100.00;100175.81;5102357;28;20529;-71
2022/11/29 04:01:04;;;;;;;132.20;34.57;;;;;;;6.66;100.00;100173.06;5096208;28;20503;-71
2022/11/29 04:03:55;;;;;;;128.27;34.77;;;;;;;6.62;100.00;100176.94;5092397;28;20475;-68
2022/11/29 04:06:30;;;;;;;114.57;34.60;;;;;;;6.65;100.00;100171.34;5062781;28;20537;-71
2022/11/29 04:09:27;;;;;;;129.37;34.53;;;;;;;6.52;100.00;100171.44;5089610;28;20574;-71
2022/11/29 04:12:22;;;;;;;151.07;35.37;;;;;;;6.55;100.00;100176.53;5101854;28;20479;-71
2022/11/29 04:15:17;;;;;;;100.30;33.43;;;;;;;6.59;100.00;100172.69;5103260;28;20431;-73
2022/11/29 04:18:03;;;;;;;110.53;33.83;;;;;;;6.56;100.00;100176.44;5103471;28;20721;-70
2022/11/29 04:21:01;;;;;;;136.07;35.30;;;;;;;6.55;100.00;100176.53;5062416;28;20523;-71
2022/11/29 04:24:14;;;;;;;139.53;36.63;;;;;;;6.47;100.00;100171.78;5093251;28;20451;-71
2022/11/29 04:26:58;;;;;;;171.20;36.20;;;;;;;6.53;100.00;100181.97;5002039;28;20638;-68
2022/11/29 04:29:39;;;;;;;98.90;32.57;;;;;;;6.56;100.00;100184.41;5061765;28;20471;-71
2022/11/29 04:32:34;;;;;;;120.20;32.20;;;;;;;6.51;100.00;100183.03;5082245;28;20495;-70
2022/11/29 04:35:15;;;;;;;170.17;36.50;;;;;;;6.59;100.00;100189.44;5083470;28;20433;-71
2022/11/29 04:37:57;;;;;;;175.40;37.43;;;;;;;6.51;100.00;100188.34;5093076;28;20459;-69
2022/11/29 04:40:32;;;;;;;148.90;37.00;;;;;;;6.56;100.00;100194.16;5089795;28;20479;-71
2022/11/29 04:43:15;;;;;;;63.73;30.20;;;;;;;6.70;100.00;100193.97;5082076;28;20448;-68
2022/11/29 04:45:52;;;;;;;88.17;30.93;;;;;;;6.74;100.00;100205.22;5082653;28;20539;-70
2022/11/29 04:48:34;;;;;;;164.87;35.83;;;;;;;6.63;100.00;100199.84;5081270;28;20474;-68
2022/11/29 04:51:12;;;;;;;250.10;40.60;;;;;;;6.57;100.00;100201.16;5090751;28;20562;-68
2022/11/29 04:53:51;;;;;;;102.40;31.73;;;;;;;6.63;100.00;100203.38;5103086;28;20431;-70
2022/11/29 04:56:25;;;;;;;124.77;33.40;;;;;;;6.57;100.00;100211.78;5083283;28;20468;-67
2022/11/29 04:58:58;;;;;;;104.43;31.53;;;;;;;6.59;100.00;100210.69;5082307;28;20887;-71
2022/11/29 05:01:29;;;;;;;92.63;34.77;;;;;;;6.65;100.00;100216.50;5081739;28;20511;-68
2022/11/29 05:04:02;;;;;;;96.77;33.10;;;;;;;6.67;100.00;100212.78;5101683;28;20494;-72
2022/11/29 05:06:34;;;;;;;100.10;34.70;;;;;;;6.70;100.00;100217.00;5086412;28;21071;-72
2022/11/29 05:09:09;;;;;;;140.80;36.10;;;;;;;6.68;100.00;100225.09;5083236;28;20568;-69
2022/11/29 05:11:46;;;;;;;222.90;38.83;;;;;;;6.66;100.00;100227.03;5094278;28;20491;-72
2022/11/29 05:14:23;;;;;;;104.03;35.90;;;;;;;6.68;100.00;100233.06;5101643;28;20515;-71
2022/11/29 05:16:54;;;;;;;304.37;47.03;;;;;;;6.72;100.00;100231.88;5088292;28;20547;-68
2022/11/29 05:19:33;;;;;;;92.77;36.00;;;;;;;6.75;100.00;100236.97;5081724;28;20499;-72
2022/11/29 05:22:06;;;;;;;81.90;35.77;;;;;;;6.66;100.00;100239.47;5081566;28;20518;-71
2022/11/29 05:24:44;;;;;;;89.33;34.40;;;;;;;6.73;100.00;100230.06;5081847;28;20480;-70
2022/11/29 05:27:16;;;;;;;113.17;38.13;;;;;;;6.74;100.00;100229.97;5076744;28;20610;-70
2022/11/29 05:29:50;;;;;;;79.47;34.80;;;;;;;6.79;100.00;100230.44;5081803;28;20463;-68
2022/11/29 05:32:28;;;;;;;88.77;38.47;;;;;;;6.79;100.00;100227.78;5085627;28;20598;-68
2022/11/29 05:35:18;;;;;;;88.53;34.80;;;;;;;6.80;100.00;100233.94;5086933;28;20542;-70
2022/11/29 05:37:48;;;;;;;98.03;37.20;;;;;;;6.79;100.00;100233.13;5071292;28;20540;-69
2022/11/29 05:40:43;;;;;;;104.63;38.07;;;;;;;6.78;100.00;100233.22;5081253;28;20480;-72
2022/11/29 05:43:34;;;;;;;99.77;36.60;;;;;;;6.77;100.00;100234.19;5080334;28;20520;-70
2022/11/29 05:46:08;;;;;;;99.80;35.43;;;;;;;6.71;100.00;100234.66;5082847;28;20488;-70
2022/11/29 05:48:43;;;;;;;88.97;37.20;;;;;;;6.64;100.00;100244.06;5068761;28;20548;-71
2022/11/29 05:51:20;;;;;;;99.93;36.07;;;;;;;6.66;100.00;100237.66;5088998;28;20478;-71
2022/11/29 05:53:54;;;;;;;103.00;36.90;;;;;;;6.67;100.00;100234.03;5078269;28;20470;-71
2022/11/29 05:56:26;;;;;;;178.67;41.20;;;;;;;6.54;100.00;100236.75;5070111;28;20543;-70
2022/11/29 05:58:57;;;;;;;110.10;38.10;;;;;;;6.55;100.00;100248.25;5073252;28;20445;-71
2022/11/29 06:01:28;;;;;;;126.47;38.43;;;;;;;6.54;100.00;100258.00;5076034;28;20476;-69
2022/11/29 06:03:59;;;;;;;108.73;37.37;;;;;;;6.64;100.00;100262.66;5081821;28;20532;-69
2022/11/29 06:06:32;;;;;;;126.70;35.50;;;;;;;6.67;100.00;100265.09;5081438;28;20484;-69
2022/11/29 06:09:05;;;;;;;185.20;43.93;;;;;;;6.63;100.00;100261.81;5085899;28;20551;-70
2022/11/29 06:11:35;;;;;;;88.27;35.70;;;;;;;6.68;100.00;100267.59;5081680;28;21212;-71
2022/11/29 06:14:05;;;;;;;85.30;35.47;;;;;;;6.71;100.00;100266.53;5081326;28;20424;-70
2022/11/29 06:16:58;;;;;;;92.70;36.00;;;;;;;6.75;100.00;100270.66;5090942;28;20476;-69
2022/11/29 06:19:51;;;;;;;95.67;35.77;;;;;;;6.75;100.00;100276.84;5090295;28;20729;-69
2022/11/29 06:22:46;;;;;;;96.10;37.73;;;;;;;6.74;100.00;100274.28;5093543;28;20486;-70
2022/11/29 06:25:23;;;;;;;95.83;37.70;;;;;;;6.71;100.00;100282.47;5060611;28;20430;-70
2022/11/29 06:28:03;;;;;;;105.97;38.63;;;;;;;6.71;100.00;100282.47;5087374;28;20484;-71
2022/11/29 06:30:38;;;;;;;202.27;41.90;;;;;;;6.62;100.00;100283.19;5093153;28;20475;-70
2022/11/29 06:33:10;;;;;;;246.67;42.50;;;;;;;6.52;100.00;100289.16;5101709;28;20462;-70
2022/11/29 06:35:44;;;;;;;107.17;35.27;;;;;;;6.66;100.00;100296.09;5076269;28;20471;-70
2022/11/29 06:38:15;;;;;;;89.17;34.83;;;;;;;6.70;100.00;100292.28;5098163;28;20446;-70
2022/11/29 06:40:42;;;;;;;115.43;39.60;;;;;;;6.73;100.00;100299.16;5092208;28;20902;-70
2022/11/29 06:43:09;;;;;;;99.93;36.80;;;;;;;6.75;100.00;100299.88;5095934;28;20480;-71
2022/11/29 06:45:36;;;;;;;107.37;39.43;;;;;;;6.77;100.00;100298.81;5102949;28;20502;-70
2022/11/29 06:48:06;;;;;;;118.30;42.37;;;;;;;6.80;100.00;100313.66;5093335;28;20534;-71
2022/11/29 06:50:45;;;;;;;158.87;42.03;;;;;;;6.68;100.00;100311.94;5086975;28;21035;-70
2022/11/29 06:53:16;;;;;;;115.43;38.37;;;;;;;6.69;100.00;100313.63;5075407;28;20487;-71
2022/11/29 06:55:48;;;;;;;119.63;37.00;;;;;;;6.73;100.00;100313.28;5086501;28;20501;-71
2022/11/29 06:58:32;;;;;;;106.70;38.17;;;;;;;6.78;100.00;100324.41;5091883;28;20946;-70
2022/11/29 07:01:03;;;;;;;115.53;37.47;;;;;;;6.85;100.00;100323.97;5090030;28;20482;-69
2022/11/29 07:03:57;;;;;;;104.63;38.07;;;;;;;6.85;100.00;100318.66;5094282;28;20472;-70
2022/11/29 07:06:27;;;;;;;97.37;37.60;;;;;;;6.90;100.00;100333.28;5064872;28;20513;-70
2022/11/29 07:08:56;;;;;;;124.43;39.47;;;;;;;6.95;100.00;100330.28;5082714;28;20472;-70
2022/11/29 07:11:23;;;;;;;91.83;34.17;;;;;;;6.97;100.00;100325.69;5082571;28;20487;-70
2022/11/29 07:13:50;;;;;;;106.10;35.07;;;;;;;6.86;100.00;100329.16;5083727;28;20428;-70
2022/11/29 07:16:22;;;;;;;107.77;36.17;;;;;;;6.81;100.00;100328.66;5082673;28;20495;-69
2022/11/29 07:19:00;;;;;;;87.73;33.80;;;;;;;6.78;100.00;100329.72;5083312;28;20431;-70
2022/11/29 07:21:38;;;;;;;74.90;35.07;;;;;;;6.79;100.00;100328.78;5083162;28;21065;-71
2022/11/29 07:24:11;;;;;;;90.03;34.73;;;;;;;6.82;100.00;100332.16;5082756;28;20440;-69
2022/11/29 07:26:43;;;;;;;83.30;33.03;;;;;;;6.85;100.00;100332.78;5082520;28;20480;-70
2022/11/29 07:29:21;;;;;;;86.80;34.83;;;;;;;6.89;100.00;100336.91;5085840;28;20562;-68
2022/11/29 07:31:58;;;;;;;86.67;35.47;;;;;;;6.88;100.00;100332.56;5089819;28;20503;-69
2022/11/29 07:34:32;;;;;;;81.93;35.57;;;;;;;6.95;100.00;100341.75;5078899;28;20468;-70
2022/11/29 07:37:03;;;;;;;84.87;34.77;;;;;;;7.02;100.00;100336.84;5088278;28;20491;-70
2022/11/29 07:39:40;;;;;;;86.93;36.57;;;;;;;7.08;100.00;100338.16;5085791;28;20471;-69
2022/11/29 07:42:12;;;;;;;92.93;36.20;;;;;;;7.11;100.00;100337.94;5085387;28;20476;-69
2022/11/29 07:44:45;;;;;;;81.90;34.17;;;;;;;7.07;100.00;100334.69;5080386;28;20444;-70
2022/11/29 07:47:12;;;;;;;93.73;36.37;;;;;;;7.14;100.00;100343.03;5084109;28;20511;-70
2022/11/29 07:49:40;;;;;;;90.43;35.23;;;;;;;7.20;100.00;100344.38;5082246;28;20754;-71
2022/11/29 07:52:07;;;;;;;91.37;34.43;;;;;;;7.20;100.00;100347.03;5081377;28;20500;-70
2022/11/29 07:54:33;;;;;;;89.50;34.83;;;;;;;7.06;100.00;100342.75;5082970;28;20474;-70
2022/11/29 07:57:00;;;;;;;100.30;39.03;;;;;;;7.09;100.00;100351.34;5081685;28;21036;-69
2022/11/29 07:59:26;;;;;;;98.03;39.83;;;;;;;7.12;100.00;100356.44;5087473;28;20471;-70
2022/11/29 08:01:53;;;;;;;77.50;35.53;;;;;;;7.24;100.00;100359.13;5087732;28;20491;-69
2022/11/29 08:04:19;;;;;;;78.90;36.70;;;;;;;7.12;100.00;100358.25;5103444;28;20462;-70
2022/11/29 08:06:47;;;;;;;72.23;32.90;;;;;;;7.19;100.00;100363.94;5088269;28;20472;-70
2022/11/29 08:09:14;;;;;;;78.30;32.93;;;;;;;7.28;100.00;100368.59;5082748;28;20493;-71
2022/11/29 08:11:41;;;;;;;79.10;33.63;;;;;;;7.26;100.00;100366.03;5081514;28;20482;-70
2022/11/29 08:14:08;;;;;;;76.67;33.10;;;;;;;7.15;100.00;100364.19;5101700;28;20489;-69
2022/11/29 08:16:35;;;;;;;89.83;33.70;;;;;;;7.19;100.00;100363.94;5101907;28;20503;-70
2022/11/29 08:19:02;;;;;;;77.33;34.80;;;;;;;7.18;100.00;100375.56;5102171;28;20491;-69
2022/11/29 08:21:29;;;;;;;66.10;32.50;;;;;;;7.19;100.00;100378.09;5088314;28;20873;-69
2022/11/29 08:23:57;;;;;;;70.13;32.47;;;;;;;7.13;100.00;100374.09;5094709;28;20472;-70
2022/11/29 08:26:23;;;;;;;62.50;30.47;;;;;;;7.14;100.00;100383.75;5101327;28;20499;-69
2022/11/29 08:28:51;;;;;;;89.37;34.20;;;;;;;7.14;100.00;100381.09;5093525;28;20504;-69
2022/11/29 08:31:19;;;;;;;70.03;36.17;;;;;;;7.33;100.00;100380.56;5081018;28;20555;-70
2022/11/29 08:33:45;;;;;;;91.00;35.23;;;;;;;7.42;100.00;100381.66;5082336;28;20428;-70
2022/11/29 08:36:15;;;;;;;87.30;37.70;;;;;;;7.35;100.00;100385.75;5080481;28;20581;-70
2022/11/29 08:38:42;;;;;;;71.17;34.77;;;;;;;7.38;100.00;100390.00;5083762;28;20440;-70
2022/11/29 08:41:11;;;;;;;76.87;34.30;;;;;;;7.50;100.00;100386.41;5080797;28;21152;-70
2022/11/29 08:43:38;;;;;;;71.47;35.43;;;;;;;7.54;100.00;100379.88;5080787;28;20473;-71
2022/11/29 08:46:05;;;;;;;67.60;33.60;;;;;;;7.58;100.00;100384.00;5081409;28;20506;-71
2022/11/29 08:48:31;;;;;;;76.47;35.90;;;;;;;7.67;100.00;100382.44;5081866;28;20522;-70
2022/11/29 08:50:58;;;;;;;73.13;33.40;;;;;;;7.67;100.00;100382.44;5078603;28;20519;-70
2022/11/29 08:53:43;;;;;;;79.73;33.50;;;;;;;7.75;100.00;100387.19;5081403;28;20464;-70
2022/11/29 08:56:12;;;;;;;78.20;34.63;;;;;;;7.77;100.00;100386.09;5065464;28;20503;-69
2022/11/29 08:58:39;;;;;;;61.80;31.90;;;;;;;7.80;100.00;100393.84;5080849;28;20456;-70
2022/11/29 09:01:13;;;;;;;75.90;32.20;;;;;;;7.78;100.00;100392.25;5081603;28;20482;-70
2022/11/29 09:06:24;;;;;;;63.77;31.97;;;;;;;7.84;100.00;100395.28;5081274;28;21233;-69
2022/11/29 09:08:50;;;;;;;59.53;30.43;;;;;;;7.91;100.00;100403.66;5101429;28;20463;-69
2022/11/29 09:11:21;;;;;;;57.20;32.53;;;;;;;7.93;100.00;100407.03;5092516;28;20511;-69
2022/11/29 09:13:49;;;;;;;61.70;30.57;;;;;;;7.97;100.00;100411.16;5080400;28;20452;-69
2022/11/29 09:16:17;;;;;;;77.13;31.83;;;;;;;7.79;100.00;100417.91;5081609;28;20472;-69
2022/11/29 09:18:44;;;;;;;63.13;31.77;;;;;;;7.89;100.00;100413.56;5081219;28;20436;-70
2022/11/29 09:21:14;;;;;;;70.40;31.77;;;;;;;7.80;100.00;100422.28;5079284;28;20996;-71
2022/11/29 09:23:42;;;;;;;70.00;33.13;;;;;;;7.97;100.00;100428.94;5081782;28;20450;-69
2022/11/29 09:26:10;;;;;;;59.97;32.00;;;;;;;8.06;100.00;100430.91;5079781;28;20499;-70
2022/11/29 09:28:38;;;;;;;72.27;32.40;;;;;;;8.13;100.00;100431.28;5081354;28;20527;-70
2022/11/29 09:31:05;;;;;;;64.63;32.90;;;;;;;8.15;100.00;100424.00;5086561;28;20496;-70
2022/11/29 09:33:32;;;;;;;63.20;32.13;;;;;;;8.15;100.00;100432.84;5081571;28;20455;-69
2022/11/29 09:35:59;;;;;;;63.40;31.50;;;;;;;8.22;100.00;100443.84;5079414;28;20564;-70
2022/11/29 09:38:26;;;;;;;51.23;27.40;;;;;;;8.32;100.00;100441.31;5081646;28;20880;-70
2022/11/29 09:40:54;;;;;;;51.73;28.73;;;;;;;8.30;100.00;100444.09;5080904;28;20504;-69
2022/11/29 09:43:26;;;;;;;41.33;26.10;;;;;;;8.34;100.00;100450.03;5079635;28;20487;-69
2022/11/29 09:45:59;;;;;;;44.60;24.30;;;;;;;8.24;100.00;100448.06;5080580;28;20471;-69
2022/11/29 09:48:40;;;;;;;38.17;24.47;;;;;;;8.32;100.00;100449.31;5084497;28;20562;-70
2022/11/29 09:51:16;;;;;;;41.20;25.67;;;;;;;8.39;100.00;100453.19;5078770;28;20525;-71
2022/11/29 09:53:54;;;;;;;43.50;25.33;;;;;;;8.43;100.00;100446.66;5080752;28;20436;-71
2022/11/29 09:56:25;;;;;;;38.83;24.50;;;;;;;8.46;100.00;100452.59;5077851;28;20479;-70
2022/11/29 09:58:55;;;;;;;45.20;25.40;;;;;;;8.44;100.00;100451.88;5080331;28;20427;-72
2022/11/29 10:01:25;;;;;;;46.53;25.63;;;;;;;8.38;100.00;100449.66;5079852;28;21000;-71
2022/11/29 10:03:53;;;;;;;36.90;23.57;;;;;;;8.41;100.00;100461.91;5080518;28;20800;-71
2022/11/29 10:06:24;;;;;;;40.97;24.23;;;;;;;8.37;100.00;100455.97;5078562;28;20548;-71
2022/11/29 10:08:54;;;;;;;43.13;24.70;;;;;;;8.34;100.00;100460.69;5083837;28;20880;-72
2022/11/29 10:11:24;;;;;;;42.97;24.30;;;;;;;8.43;100.00;100452.00;5083616;28;20476;-71
2022/11/29 10:13:53;;;;;;;38.30;25.03;;;;;;;8.47;100.00;100450.75;5079542;28;20475;-72
2022/11/29 10:16:31;;;;;;;45.67;27.00;;;;;;;8.54;100.00;100452.00;5079959;28;20521;-72
2022/11/29 10:19:02;;;;;;;34.40;22.10;;;;;;;8.60;100.00;100455.97;5094690;28;20920;-72
2022/11/29 10:21:32;;;;;;;48.70;24.77;;;;;;;8.54;100.00;100451.13;5078482;28;20464;-71
2022/11/29 10:24:01;;;;;;;37.20;21.60;;;;;;;8.68;100.00;100450.91;5082917;28;20441;-72
2022/11/29 10:26:28;;;;;;;44.80;24.80;;;;;;;8.80;100.00;100455.22;5099274;28;20491;-70
2022/11/29 10:28:56;;;;;;;43.43;22.77;;;;;;;8.91;100.00;100453.53;5081525;28;20496;-71
2022/11/29 10:31:25;;;;;;;37.57;22.03;;;;;;;9.00;100.00;100450.94;5079130;28;20472;-71
2022/11/29 10:33:54;;;;;;;42.80;23.30;;;;;;;9.08;100.00;100452.13;5080078;28;20523;-70
2022/11/29 10:36:26;;;;;;;38.27;22.20;;;;;;;8.96;100.00;100454.00;5089989;28;20483;-71
2022/11/29 10:38:55;;;;;;;38.40;23.73;;;;;;;8.89;100.00;100450.09;5091011;28;20444;-71
2022/11/29 10:41:22;;;;;;;38.53;20.47;;;;;;;9.01;100.00;100449.13;5091281;28;20479;-70
2022/11/29 10:43:50;;;;;;;41.43;22.40;;;;;;;9.03;100.00;100456.03;5094833;28;20482;-72
2022/11/29 10:46:26;;;;;;;40.50;20.40;;;;;;;8.99;100.00;100456.38;5085442;28;20527;-71
2022/11/29 10:48:54;;;;;;;36.30;20.60;;;;;;;9.03;100.00;100452.50;5067889;28;20467;-71
2022/11/29 10:51:24;;;;;;;35.50;21.93;;;;;;;9.07;100.00;100456.63;5091671;28;20467;-71
2022/11/29 10:53:53;;;;;;;49.77;23.40;;;;;;;9.09;100.00;100451.16;5099851;28;20443;-72
2022/11/29 10:56:23;;;;;;;36.13;21.40;;;;;;;9.02;100.00;100462.31;5093747;28;20825;-71
2022/11/29 10:58:57;;;;;;;36.47;20.30;;;;;;;9.07;100.00;100459.28;5079746;28;20429;-70
2022/11/29 11:01:27;;;;;;;39.00;22.40;;;;;;;9.19;100.00;100463.59;5086125;28;20531;-71
2022/11/29 11:03:56;;;;;;;40.97;22.40;;;;;;;9.10;100.00;100464.38;5084877;28;20476;-72
2022/11/29 11:06:24;;;;;;;35.13;20.93;;;;;;;9.14;100.00;100464.97;5080524;28;20476;-71
2022/11/29 11:08:53;;;;;;;42.63;22.93;;;;;;;9.18;100.00;100461.06;5080321;28;20499;-70
2022/11/29 11:11:25;;;;;;;42.10;21.97;;;;;;;9.17;100.00;100452.22;5094918;28;20521;-70
2022/11/29 11:13:58;;;;;;;38.80;21.50;;;;;;;9.22;100.00;100452.69;5083862;28;20613;-70
2022/11/29 11:16:25;;;;;;;37.80;20.57;;;;;;;9.07;100.00;100458.44;5094484;28;20529;-71
2022/11/29 11:18:52;;;;;;;41.13;22.07;;;;;;;9.08;100.00;100455.66;5101918;28;20475;-71
2022/11/29 11:21:22;;;;;;;35.67;19.47;;;;;;;9.10;100.00;100456.38;5085048;28;20484;-71
2022/11/29 11:23:54;;;;;;;42.47;21.00;;;;;;;9.09;100.00;100457.31;5091131;28;20467;-71
2022/11/29 11:26:21;;;;;;;36.27;19.20;;;;;;;9.15;100.00;100450.63;5081365;28;20516;-72
2022/11/29 11:28:51;;;;;;;40.10;21.67;;;;;;;9.20;100.00;100453.78;5088003;28;20454;-70
2022/11/29 11:31:26;;;;;;;34.37;19.30;;;;;;;9.28;100.00;100455.81;5093368;28;20543;-72
2022/11/29 11:33:53;;;;;;;38.80;18.70;;;;;;;9.37;100.00;100452.38;5082788;28;20522;-69
2022/11/29 11:36:24;;;;;;;32.30;18.10;;;;;;;9.21;100.00;100450.97;5090935;28;20987;-69